sensor_id;sensor_type;location;lat;lon;timestamp;P1;durP1;ratioP1;P2;durP2;ratioP2
14306;SDS011;7237;49.500;11.400;2022-08-14T00:01:44;8.40;;;7.65;;
14306;SDS011;7237;49.500;11.400;2022-08-14T00:04:11;8.88;;;8.07;;
14306;SDS011;7237;49.500;11.400;2022-08-14T00:06:39;9.05;;;8.20;;
14306;SDS011;7237;49.500;11.400;2022-08-14T00:09:06;8.50;;;7.70;;
14306;SDS011;7237;49.500;11.400;2022-08-14T00:11:33;9.00;;;8.30;;
14306;SDS011;7237;49.500;11.400;2022-08-14T00:14:00;8.35;;;7.53;;
14306;SDS011;7237;49.500;11.400;2022-08-14T00:16:27;8.60;;;7.72;;
14306;SDS011;7237;49.500;11.400;2022-08-14T00:18:56;8.52;;;7.82;;
14306;SDS011;7237;49.500;11.400;2022-08-14T00:21:24;8.80;;;8.10;;
14306;SDS011;7237;49.500;11.400;2022-08-14T00:23:53;9.05;;;8.25;;
14306;SDS011;7237;49.500;11.400;2022-08-14T00:26:21;9.18;;;8.38;;
14306;SDS011;7237;49.500;11.400;2022-08-14T00:28:48;8.63;;;7.82;;
14306;SDS011;7237;49.500;11.400;2022-08-14T00:31:15;8.90;;;8.02;;
14306;SDS011;7237;49.500;11.400;2022-08-14T00:33:42;9.02;;;8.13;;
14306;SDS011;7237;49.500;11.400;2022-08-14T00:36:09;9.13;;;8.32;;
14306;SDS011;7237;49.500;11.400;2022-08-14T00:38:36;9.00;;;8.15;;
14306;SDS011;7237;49.500;11.400;2022-08-14T00:41:05;9.57;;;8.77;;
14306;SDS011;7237;49.500;11.400;2022-08-14T00:43:32;9.57;;;8.77;;
14306;SDS011;7237;49.500;11.400;2022-08-14T00:46:01;8.93;;;8.23;;
14306;SDS011;7237;49.500;11.400;2022-08-14T00:48:28;9.55;;;8.55;;
14306;SDS011;7237;49.500;11.400;2022-08-14T00:50:55;9.13;;;8.43;;
14306;SDS011;7237;49.500;11.400;2022-08-14T00:53:22;9.50;;;8.50;;
14306;SDS011;7237;49.500;11.400;2022-08-14T00:55:50;9.15;;;8.40;;
14306;SDS011;7237;49.500;11.400;2022-08-14T00:58:20;9.60;;;8.80;;
14306;SDS011;7237;49.500;11.400;2022-08-14T01:00:57;10.10;;;9.20;;
14306;SDS011;7237;49.500;11.400;2022-08-14T01:03:24;9.60;;;8.77;;
14306;SDS011;7237;49.500;11.400;2022-08-14T01:05:53;10.23;;;9.32;;
14306;SDS011;7237;49.500;11.400;2022-08-14T01:08:21;10.40;;;9.00;;
14306;SDS011;7237;49.500;11.400;2022-08-14T01:10:48;9.97;;;9.17;;
14306;SDS011;7237;49.500;11.400;2022-08-14T01:13:17;9.83;;;9.03;;
14306;SDS011;7237;49.500;11.400;2022-08-14T01:15:48;10.23;;;9.03;;
14306;SDS011;7237;49.500;11.400;2022-08-14T01:18:15;10.20;;;9.40;;
14306;SDS011;7237;49.500;11.400;2022-08-14T01:21:00;9.53;;;8.80;;
14306;SDS011;7237;49.500;11.400;2022-08-14T01:23:34;9.47;;;8.73;;
14306;SDS011;7237;49.500;11.400;2022-08-14T01:26:02;9.50;;;8.70;;
14306;SDS011;7237;49.500;11.400;2022-08-14T01:28:30;9.80;;;9.00;;
14306;SDS011;7237;49.500;11.400;2022-08-14T01:31:02;10.53;;;9.53;;
14306;SDS011;7237;49.500;11.400;2022-08-14T01:33:30;11.03;;;10.03;;
14306;SDS011;7237;49.500;11.400;2022-08-14T01:35:58;10.60;;;9.60;;
14306;SDS011;7237;49.500;11.400;2022-08-14T01:38:25;10.37;;;9.47;;
14306;SDS011;7237;49.500;11.400;2022-08-14T01:40:56;10.37;;;9.47;;
14306;SDS011;7237;49.500;11.400;2022-08-14T01:43:23;9.77;;;8.97;;
14306;SDS011;7237;49.500;11.400;2022-08-14T01:45:55;9.73;;;8.93;;
14306;SDS011;7237;49.500;11.400;2022-08-14T01:48:24;10.47;;;9.57;;
14306;SDS011;7237;49.500;11.400;2022-08-14T01:50:54;9.67;;;8.93;;
14306;SDS011;7237;49.500;11.400;2022-08-14T01:53:21;9.90;;;9.00;;
14306;SDS011;7237;49.500;11.400;2022-08-14T01:55:48;10.23;;;9.40;;
14306;SDS011;7237;49.500;11.400;2022-08-14T01:58:17;10.50;;;9.70;;
14306;SDS011;7237;49.500;11.400;2022-08-14T02:00:47;10.33;;;9.53;;
14306;SDS011;7237;49.500;11.400;2022-08-14T02:03:18;10.13;;;9.33;;
14306;SDS011;7237;49.500;11.400;2022-08-14T02:05:45;10.73;;;9.80;;
14306;SDS011;7237;49.500;11.400;2022-08-14T02:08:12;10.63;;;9.83;;
14306;SDS011;7237;49.500;11.400;2022-08-14T02:10:39;11.30;;;10.20;;
14306;SDS011;7237;49.500;11.400;2022-08-14T02:13:07;11.00;;;10.00;;
14306;SDS011;7237;49.500;11.400;2022-08-14T02:15:35;10.60;;;9.60;;
14306;SDS011;7237;49.500;11.400;2022-08-14T02:18:05;11.23;;;10.20;;
14306;SDS011;7237;49.500;11.400;2022-08-14T02:20:32;11.23;;;10.00;;
14306;SDS011;7237;49.500;11.400;2022-08-14T02:22:59;11.27;;;10.37;;
14306;SDS011;7237;49.500;11.400;2022-08-14T02:25:26;10.93;;;10.03;;
14306;SDS011;7237;49.500;11.400;2022-08-14T02:27:54;10.83;;;9.93;;
14306;SDS011;7237;49.500;11.400;2022-08-14T02:30:21;11.50;;;10.50;;
14306;SDS011;7237;49.500;11.400;2022-08-14T02:32:50;11.90;;;10.60;;
14306;SDS011;7237;49.500;11.400;2022-08-14T02:35:17;11.40;;;10.50;;
14306;SDS011;7237;49.500;11.400;2022-08-14T02:37:44;11.50;;;10.60;;
14306;SDS011;7237;49.500;11.400;2022-08-14T02:40:11;11.80;;;10.83;;
14306;SDS011;7237;49.500;11.400;2022-08-14T02:42:39;11.80;;;10.80;;
14306;SDS011;7237;49.500;11.400;2022-08-14T02:45:07;11.93;;;10.73;;
14306;SDS011;7237;49.500;11.400;2022-08-14T02:47:34;11.70;;;10.80;;
14306;SDS011;7237;49.500;11.400;2022-08-14T02:50:03;11.60;;;10.63;;
14306;SDS011;7237;49.500;11.400;2022-08-14T02:52:30;11.57;;;10.57;;
14306;SDS011;7237;49.500;11.400;2022-08-14T02:54:57;12.10;;;11.10;;
14306;SDS011;7237;49.500;11.400;2022-08-14T02:57:25;12.40;;;11.33;;
14306;SDS011;7237;49.500;11.400;2022-08-14T02:59:52;12.20;;;11.20;;
14306;SDS011;7237;49.500;11.400;2022-08-14T03:02:21;12.43;;;10.77;;
14306;SDS011;7237;49.500;11.400;2022-08-14T03:04:48;12.57;;;11.47;;
14306;SDS011;7237;49.500;11.400;2022-08-14T03:07:19;12.20;;;11.20;;
14306;SDS011;7237;49.500;11.400;2022-08-14T03:09:46;12.20;;;11.20;;
14306;SDS011;7237;49.500;11.400;2022-08-14T03:12:13;12.47;;;11.23;;
14306;SDS011;7237;49.500;11.400;2022-08-14T03:14:40;12.33;;;11.23;;
14306;SDS011;7237;49.500;11.400;2022-08-14T03:17:10;12.37;;;11.27;;
14306;SDS011;7237;49.500;11.400;2022-08-14T03:19:38;11.87;;;10.93;;
14306;SDS011;7237;49.500;11.400;2022-08-14T03:22:05;12.47;;;11.37;;
14306;SDS011;7237;49.500;11.400;2022-08-14T03:24:34;12.73;;;11.63;;
14306;SDS011;7237;49.500;11.400;2022-08-14T03:27:01;12.50;;;11.50;;
14306;SDS011;7237;49.500;11.400;2022-08-14T03:29:30;13.13;;;12.03;;
14306;SDS011;7237;49.500;11.400;2022-08-14T03:31:57;12.10;;;11.13;;
14306;SDS011;7237;49.500;11.400;2022-08-14T03:34:24;13.27;;;12.07;;
14306;SDS011;7237;49.500;11.400;2022-08-14T03:36:52;13.67;;;12.57;;
14306;SDS011;7237;49.500;11.400;2022-08-14T03:39:22;13.77;;;12.57;;
14306;SDS011;7237;49.500;11.400;2022-08-14T03:41:53;13.43;;;12.13;;
14306;SDS011;7237;49.500;11.400;2022-08-14T03:44:21;14.50;;;13.20;;
14306;SDS011;7237;49.500;11.400;2022-08-14T03:46:48;13.80;;;12.67;;
14306;SDS011;7237;49.500;11.400;2022-08-14T03:49:16;13.87;;;12.67;;
14306;SDS011;7237;49.500;11.400;2022-08-14T03:51:47;14.17;;;13.00;;
14306;SDS011;7237;49.500;11.400;2022-08-14T03:54:15;13.20;;;12.10;;
14306;SDS011;7237;49.500;11.400;2022-08-14T03:56:42;13.10;;;11.87;;
14306;SDS011;7237;49.500;11.400;2022-08-14T03:59:10;13.27;;;12.17;;
14306;SDS011;7237;49.500;11.400;2022-08-14T04:01:38;13.67;;;12.47;;
14306;SDS011;7237;49.500;11.400;2022-08-14T04:04:06;13.83;;;12.53;;
14306;SDS011;7237;49.500;11.400;2022-08-14T04:06:34;12.77;;;11.67;;
14306;SDS011;7237;49.500;11.400;2022-08-14T04:09:01;14.13;;;12.90;;
14306;SDS011;7237;49.500;11.400;2022-08-14T04:11:28;13.97;;;12.77;;
14306;SDS011;7237;49.500;11.400;2022-08-14T04:13:55;13.50;;;12.20;;
14306;SDS011;7237;49.500;11.400;2022-08-14T04:16:23;14.47;;;13.27;;
14306;SDS011;7237;49.500;11.400;2022-08-14T04:18:52;14.03;;;12.73;;
14306;SDS011;7237;49.500;11.400;2022-08-14T04:21:21;14.43;;;13.23;;
14306;SDS011;7237;49.500;11.400;2022-08-14T04:23:49;14.33;;;13.13;;
14306;SDS011;7237;49.500;11.400;2022-08-14T04:26:16;13.37;;;12.17;;
14306;SDS011;7237;49.500;11.400;2022-08-14T04:28:46;14.00;;;12.80;;
14306;SDS011;7237;49.500;11.400;2022-08-14T04:31:13;14.23;;;12.93;;
14306;SDS011;7237;49.500;11.400;2022-08-14T04:33:42;13.87;;;12.70;;
14306;SDS011;7237;49.500;11.400;2022-08-14T04:36:09;13.10;;;11.97;;
14306;SDS011;7237;49.500;11.400;2022-08-14T04:38:36;13.50;;;12.40;;
14306;SDS011;7237;49.500;11.400;2022-08-14T04:41:21;14.33;;;13.07;;
14306;SDS011;7237;49.500;11.400;2022-08-14T04:44:05;13.77;;;12.57;;
14306;SDS011;7237;49.500;11.400;2022-08-14T04:46:33;13.63;;;12.53;;
14306;SDS011;7237;49.500;11.400;2022-08-14T04:49:02;13.10;;;11.77;;
14306;SDS011;7237;49.500;11.400;2022-08-14T04:51:28;13.60;;;12.20;;
14306;SDS011;7237;49.500;11.400;2022-08-14T04:53:57;13.77;;;12.43;;
14306;SDS011;7237;49.500;11.400;2022-08-14T04:56:25;13.20;;;12.10;;
14306;SDS011;7237;49.500;11.400;2022-08-14T04:58:53;11.53;;;10.63;;
14306;SDS011;7237;49.500;11.400;2022-08-14T05:01:22;11.00;;;10.10;;
14306;SDS011;7237;49.500;11.400;2022-08-14T05:03:49;10.45;;;9.55;;
14306;SDS011;7237;49.500;11.400;2022-08-14T05:06:18;9.93;;;9.00;;
14306;SDS011;7237;49.500;11.400;2022-08-14T05:08:45;10.38;;;9.27;;
14306;SDS011;7237;49.500;11.400;2022-08-14T05:11:13;10.10;;;9.20;;
14306;SDS011;7237;49.500;11.400;2022-08-14T05:13:40;8.73;;;8.02;;
14306;SDS011;7237;49.500;11.400;2022-08-14T05:16:08;9.63;;;8.80;;
14306;SDS011;7237;49.500;11.400;2022-08-14T05:18:37;9.30;;;8.40;;
14306;SDS011;7237;49.500;11.400;2022-08-14T05:21:05;8.18;;;7.57;;
14306;SDS011;7237;49.500;11.400;2022-08-14T05:23:34;8.77;;;8.02;;
14306;SDS011;7237;49.500;11.400;2022-08-14T05:26:02;8.40;;;7.70;;
14306;SDS011;7237;49.500;11.400;2022-08-14T05:28:30;8.80;;;7.93;;
14306;SDS011;7237;49.500;11.400;2022-08-14T05:30:58;8.27;;;7.53;;
14306;SDS011;7237;49.500;11.400;2022-08-14T05:33:26;8.35;;;7.75;;
14306;SDS011;7237;49.500;11.400;2022-08-14T05:35:54;8.13;;;7.05;;
14306;SDS011;7237;49.500;11.400;2022-08-14T05:38:26;9.52;;;7.18;;
14306;SDS011;7237;49.500;11.400;2022-08-14T05:40:55;8.00;;;7.25;;
14306;SDS011;7237;49.500;11.400;2022-08-14T05:43:22;8.32;;;7.57;;
14306;SDS011;7237;49.500;11.400;2022-08-14T05:45:49;7.18;;;6.57;;
14306;SDS011;7237;49.500;11.400;2022-08-14T05:48:16;7.00;;;6.50;;
14306;SDS011;7237;49.500;11.400;2022-08-14T05:50:43;7.28;;;6.55;;
14306;SDS011;7237;49.500;11.400;2022-08-14T05:53:10;6.93;;;6.32;;
14306;SDS011;7237;49.500;11.400;2022-08-14T05:55:37;6.82;;;6.20;;
14306;SDS011;7237;49.500;11.400;2022-08-14T05:58:06;7.15;;;6.47;;
14306;SDS011;7237;49.500;11.400;2022-08-14T06:00:34;6.45;;;5.95;;
14306;SDS011;7237;49.500;11.400;2022-08-14T06:03:02;8.15;;;6.10;;
14306;SDS011;7237;49.500;11.400;2022-08-14T06:05:30;6.38;;;5.88;;
14306;SDS011;7237;49.500;11.400;2022-08-14T06:07:57;7.18;;;6.57;;
14306;SDS011;7237;49.500;11.400;2022-08-14T06:10:25;6.80;;;6.30;;
14306;SDS011;7237;49.500;11.400;2022-08-14T06:12:52;6.93;;;6.32;;
14306;SDS011;7237;49.500;11.400;2022-08-14T06:15:21;6.45;;;5.85;;
14306;SDS011;7237;49.500;11.400;2022-08-14T06:17:50;6.22;;;5.78;;
14306;SDS011;7237;49.500;11.400;2022-08-14T06:20:17;7.13;;;6.53;;
14306;SDS011;7237;49.500;11.400;2022-08-14T06:22:45;7.40;;;6.80;;
14306;SDS011;7237;49.500;11.400;2022-08-14T06:25:13;6.50;;;5.90;;
14306;SDS011;7237;49.500;11.400;2022-08-14T06:27:41;6.85;;;6.30;;
14306;SDS011;7237;49.500;11.400;2022-08-14T06:30:10;7.00;;;6.50;;
14306;SDS011;7237;49.500;11.400;2022-08-14T06:32:39;7.05;;;6.45;;
14306;SDS011;7237;49.500;11.400;2022-08-14T06:35:07;6.55;;;6.00;;
14306;SDS011;7237;49.500;11.400;2022-08-14T06:37:38;7.07;;;6.38;;
14306;SDS011;7237;49.500;11.400;2022-08-14T06:40:06;7.10;;;6.50;;
14306;SDS011;7237;49.500;11.400;2022-08-14T06:42:33;6.95;;;6.45;;
14306;SDS011;7237;49.500;11.400;2022-08-14T06:45:00;6.97;;;6.40;;
14306;SDS011;7237;49.500;11.400;2022-08-14T06:47:27;7.25;;;6.65;;
14306;SDS011;7237;49.500;11.400;2022-08-14T06:49:56;7.13;;;6.53;;
14306;SDS011;7237;49.500;11.400;2022-08-14T06:52:23;6.68;;;6.03;;
14306;SDS011;7237;49.500;11.400;2022-08-14T06:54:50;7.07;;;6.47;;
14306;SDS011;7237;49.500;11.400;2022-08-14T06:57:17;7.82;;;6.60;;
14306;SDS011;7237;49.500;11.400;2022-08-14T06:59:44;6.70;;;6.10;;
14306;SDS011;7237;49.500;11.400;2022-08-14T07:02:11;6.35;;;5.82;;
14306;SDS011;7237;49.500;11.400;2022-08-14T07:04:57;7.15;;;6.55;;
14306;SDS011;7237;49.500;11.400;2022-08-14T07:07:42;7.18;;;6.43;;
14306;SDS011;7237;49.500;11.400;2022-08-14T07:10:10;7.38;;;6.68;;
14306;SDS011;7237;49.500;11.400;2022-08-14T07:12:37;7.40;;;6.70;;
14306;SDS011;7237;49.500;11.400;2022-08-14T07:15:04;7.00;;;6.35;;
14306;SDS011;7237;49.500;11.400;2022-08-14T07:17:32;7.10;;;6.50;;
14306;SDS011;7237;49.500;11.400;2022-08-14T07:20:01;6.68;;;6.05;;
14306;SDS011;7237;49.500;11.400;2022-08-14T07:22:29;6.75;;;6.15;;
14306;SDS011;7237;49.500;11.400;2022-08-14T07:24:56;6.75;;;6.22;;
14306;SDS011;7237;49.500;11.400;2022-08-14T07:27:23;6.45;;;5.85;;
14306;SDS011;7237;49.500;11.400;2022-08-14T07:29:50;10.75;;;6.13;;
14306;SDS011;7237;49.500;11.400;2022-08-14T07:32:17;6.47;;;5.95;;
14306;SDS011;7237;49.500;11.400;2022-08-14T07:34:44;6.75;;;6.22;;
14306;SDS011;7237;49.500;11.400;2022-08-14T07:37:12;6.88;;;6.28;;
14306;SDS011;7237;49.500;11.400;2022-08-14T07:39:39;6.47;;;6.00;;
14306;SDS011;7237;49.500;11.400;2022-08-14T07:42:06;6.43;;;5.93;;
14306;SDS011;7237;49.500;11.400;2022-08-14T07:44:33;5.93;;;5.45;;
14306;SDS011;7237;49.500;11.400;2022-08-14T07:47:00;6.43;;;5.82;;
14306;SDS011;7237;49.500;11.400;2022-08-14T07:49:28;7.15;;;5.85;;
14306;SDS011;7237;49.500;11.400;2022-08-14T07:51:55;7.45;;;6.72;;
14306;SDS011;7237;49.500;11.400;2022-08-14T07:54:25;6.72;;;6.13;;
14306;SDS011;7237;49.500;11.400;2022-08-14T07:56:52;6.38;;;5.88;;
14306;SDS011;7237;49.500;11.400;2022-08-14T07:59:19;6.85;;;6.25;;
14306;SDS011;7237;49.500;11.400;2022-08-14T08:01:48;6.65;;;6.05;;
14306;SDS011;7237;49.500;11.400;2022-08-14T08:04:15;6.50;;;5.95;;
14306;SDS011;7237;49.500;11.400;2022-08-14T08:06:42;6.68;;;6.18;;
14306;SDS011;7237;49.500;11.400;2022-08-14T08:09:09;6.88;;;6.15;;
14306;SDS011;7237;49.500;11.400;2022-08-14T08:11:39;6.28;;;5.78;;
14306;SDS011;7237;49.500;11.400;2022-08-14T08:14:06;7.38;;;5.80;;
14306;SDS011;7237;49.500;11.400;2022-08-14T08:16:34;6.80;;;5.80;;
14306;SDS011;7237;49.500;11.400;2022-08-14T08:19:02;5.95;;;5.43;;
14306;SDS011;7237;49.500;11.400;2022-08-14T08:21:30;6.05;;;5.55;;
14306;SDS011;7237;49.500;11.400;2022-08-14T08:23:58;7.03;;;5.80;;
14306;SDS011;7237;49.500;11.400;2022-08-14T08:26:27;5.93;;;5.43;;
14306;SDS011;7237;49.500;11.400;2022-08-14T08:28:57;6.22;;;5.63;;
14306;SDS011;7237;49.500;11.400;2022-08-14T08:31:24;5.93;;;5.43;;
14306;SDS011;7237;49.500;11.400;2022-08-14T08:33:52;6.30;;;5.70;;
14306;SDS011;7237;49.500;11.400;2022-08-14T08:36:20;6.63;;;5.63;;
14306;SDS011;7237;49.500;11.400;2022-08-14T08:38:48;6.38;;;5.47;;
14306;SDS011;7237;49.500;11.400;2022-08-14T08:41:15;6.22;;;5.72;;
14306;SDS011;7237;49.500;11.400;2022-08-14T08:43:42;6.43;;;5.93;;
14306;SDS011;7237;49.500;11.400;2022-08-14T08:46:12;5.95;;;5.45;;
14306;SDS011;7237;49.500;11.400;2022-08-14T08:48:42;7.45;;;5.65;;
14306;SDS011;7237;49.500;11.400;2022-08-14T08:51:19;6.05;;;5.40;;
14306;SDS011;7237;49.500;11.400;2022-08-14T08:53:54;6.72;;;5.65;;
14306;SDS011;7237;49.500;11.400;2022-08-14T08:56:31;6.45;;;5.85;;
14306;SDS011;7237;49.500;11.400;2022-08-14T08:58:58;6.15;;;5.65;;
14306;SDS011;7237;49.500;11.400;2022-08-14T09:01:27;5.88;;;5.38;;
14306;SDS011;7237;49.500;11.400;2022-08-14T09:04:00;6.57;;;5.93;;
14306;SDS011;7237;49.500;11.400;2022-08-14T09:06:27;5.97;;;5.47;;
14306;SDS011;7237;49.500;11.400;2022-08-14T09:08:54;5.70;;;5.20;;
14306;SDS011;7237;49.500;11.400;2022-08-14T09:11:21;6.35;;;5.57;;
14306;SDS011;7237;49.500;11.400;2022-08-14T09:13:49;8.13;;;5.70;;
14306;SDS011;7237;49.500;11.400;2022-08-14T09:16:18;5.90;;;5.32;;
14306;SDS011;7237;49.500;11.400;2022-08-14T09:18:47;6.03;;;5.03;;
14306;SDS011;7237;49.500;11.400;2022-08-14T09:21:14;5.15;;;4.75;;
14306;SDS011;7237;49.500;11.400;2022-08-14T09:23:42;4.82;;;4.43;;
14306;SDS011;7237;49.500;11.400;2022-08-14T09:26:09;5.47;;;4.90;;
14306;SDS011;7237;49.500;11.400;2022-08-14T09:28:36;5.40;;;4.82;;
14306;SDS011;7237;49.500;11.400;2022-08-14T09:31:03;4.80;;;4.40;;
14306;SDS011;7237;49.500;11.400;2022-08-14T09:33:35;4.70;;;4.25;;
14306;SDS011;7237;49.500;11.400;2022-08-14T09:36:21;5.95;;;4.38;;
14306;SDS011;7237;49.500;11.400;2022-08-14T09:38:53;6.05;;;4.82;;
14306;SDS011;7237;49.500;11.400;2022-08-14T09:41:29;5.85;;;4.97;;
14306;SDS011;7237;49.500;11.400;2022-08-14T09:44:02;5.30;;;4.90;;
14306;SDS011;7237;49.500;11.400;2022-08-14T09:46:31;5.57;;;5.15;;
14306;SDS011;7237;49.500;11.400;2022-08-14T09:48:58;7.30;;;5.60;;
14306;SDS011;7237;49.500;11.400;2022-08-14T09:51:27;5.80;;;5.30;;
14306;SDS011;7237;49.500;11.400;2022-08-14T09:53:59;6.38;;;5.22;;
14306;SDS011;7237;49.500;11.400;2022-08-14T09:56:26;5.75;;;5.25;;
14306;SDS011;7237;49.500;11.400;2022-08-14T09:58:53;5.82;;;5.28;;
14306;SDS011;7237;49.500;11.400;2022-08-14T10:01:23;6.72;;;5.28;;
14306;SDS011;7237;49.500;11.400;2022-08-14T10:04:00;7.13;;;5.07;;
14306;SDS011;7237;49.500;11.400;2022-08-14T10:06:29;6.03;;;5.43;;
14306;SDS011;7237;49.500;11.400;2022-08-14T10:08:57;5.35;;;4.88;;
14306;SDS011;7237;49.500;11.400;2022-08-14T10:11:26;5.70;;;5.10;;
14306;SDS011;7237;49.500;11.400;2022-08-14T10:13:56;6.50;;;5.20;;
14306;SDS011;7237;49.500;11.400;2022-08-14T10:16:27;10.35;;;5.18;;
14306;SDS011;7237;49.500;11.400;2022-08-14T10:19:02;6.35;;;5.13;;
14306;SDS011;7237;49.500;11.400;2022-08-14T10:21:31;5.60;;;5.07;;
14306;SDS011;7237;49.500;11.400;2022-08-14T10:23:58;5.20;;;4.80;;
14306;SDS011;7237;49.500;11.400;2022-08-14T10:26:25;5.53;;;4.63;;
14306;SDS011;7237;49.500;11.400;2022-08-14T10:28:53;6.53;;;4.70;;
14306;SDS011;7237;49.500;11.400;2022-08-14T10:31:21;5.13;;;4.72;;
14306;SDS011;7237;49.500;11.400;2022-08-14T10:33:58;5.13;;;4.68;;
14306;SDS011;7237;49.500;11.400;2022-08-14T10:36:26;6.25;;;4.72;;
14306;SDS011;7237;49.500;11.400;2022-08-14T10:38:58;8.55;;;5.00;;
14306;SDS011;7237;49.500;11.400;2022-08-14T10:41:33;6.70;;;4.90;;
14306;SDS011;7237;49.500;11.400;2022-08-14T10:44:04;6.30;;;4.82;;
14306;SDS011;7237;49.500;11.400;2022-08-14T10:46:37;5.10;;;4.70;;
14306;SDS011;7237;49.500;11.400;2022-08-14T10:49:05;6.32;;;4.72;;
14306;SDS011;7237;49.500;11.400;2022-08-14T10:51:33;4.93;;;4.53;;
14306;SDS011;7237;49.500;11.400;2022-08-14T10:54:05;5.05;;;4.60;;
14306;SDS011;7237;49.500;11.400;2022-08-14T10:56:33;5.10;;;4.70;;
14306;SDS011;7237;49.500;11.400;2022-08-14T10:59:01;5.28;;;4.78;;
14306;SDS011;7237;49.500;11.400;2022-08-14T11:01:31;5.07;;;4.57;;
14306;SDS011;7237;49.500;11.400;2022-08-14T11:03:59;5.43;;;4.90;;
14306;SDS011;7237;49.500;11.400;2022-08-14T11:06:26;6.60;;;4.75;;
14306;SDS011;7237;49.500;11.400;2022-08-14T11:08:55;4.82;;;4.43;;
14306;SDS011;7237;49.500;11.400;2022-08-14T11:11:24;5.30;;;4.35;;
14306;SDS011;7237;49.500;11.400;2022-08-14T11:13:54;6.57;;;4.47;;
14306;SDS011;7237;49.500;11.400;2022-08-14T11:16:21;4.82;;;4.50;;
14306;SDS011;7237;49.500;11.400;2022-08-14T11:18:49;4.95;;;4.50;;
14306;SDS011;7237;49.500;11.400;2022-08-14T11:21:18;5.93;;;4.50;;
14306;SDS011;7237;49.500;11.400;2022-08-14T11:23:47;9.30;;;4.70;;
14306;SDS011;7237;49.500;11.400;2022-08-14T11:26:15;5.35;;;4.82;;
14306;SDS011;7237;49.500;11.400;2022-08-14T11:28:45;5.30;;;4.80;;
14306;SDS011;7237;49.500;11.400;2022-08-14T11:31:13;5.35;;;4.85;;
14306;SDS011;7237;49.500;11.400;2022-08-14T11:33:40;6.70;;;4.75;;
14306;SDS011;7237;49.500;11.400;2022-08-14T11:36:09;5.00;;;4.60;;
14306;SDS011;7237;49.500;11.400;2022-08-14T11:38:38;4.97;;;4.60;;
14306;SDS011;7237;49.500;11.400;2022-08-14T11:41:05;5.68;;;4.70;;
14306;SDS011;7237;49.500;11.400;2022-08-14T11:43:36;5.95;;;4.57;;
14306;SDS011;7237;49.500;11.400;2022-08-14T11:46:05;5.45;;;4.95;;
14306;SDS011;7237;49.500;11.400;2022-08-14T11:48:43;5.18;;;4.53;;
14306;SDS011;7237;49.500;11.400;2022-08-14T11:51:11;6.10;;;4.45;;
14306;SDS011;7237;49.500;11.400;2022-08-14T11:53:40;5.68;;;4.38;;
14306;SDS011;7237;49.500;11.400;2022-08-14T11:56:07;5.38;;;4.88;;
14306;SDS011;7237;49.500;11.400;2022-08-14T11:58:35;5.35;;;4.95;;
14306;SDS011;7237;49.500;11.400;2022-08-14T12:01:03;5.20;;;4.70;;
14306;SDS011;7237;49.500;11.400;2022-08-14T12:03:35;4.65;;;4.20;;
14306;SDS011;7237;49.500;11.400;2022-08-14T12:06:03;4.45;;;4.15;;
14306;SDS011;7237;49.500;11.400;2022-08-14T12:08:32;4.50;;;4.10;;
14306;SDS011;7237;49.500;11.400;2022-08-14T12:10:59;4.60;;;4.20;;
14306;SDS011;7237;49.500;11.400;2022-08-14T12:13:28;4.43;;;4.07;;
14306;SDS011;7237;49.500;11.400;2022-08-14T12:15:57;5.38;;;4.82;;
14306;SDS011;7237;49.500;11.400;2022-08-14T12:18:28;5.57;;;4.57;;
14306;SDS011;7237;49.500;11.400;2022-08-14T12:20:57;5.10;;;4.70;;
14306;SDS011;7237;49.500;11.400;2022-08-14T12:23:25;4.70;;;4.30;;
14306;SDS011;7237;49.500;11.400;2022-08-14T12:26:00;5.28;;;4.78;;
14306;SDS011;7237;49.500;11.400;2022-08-14T12:28:28;5.32;;;4.30;;
14306;SDS011;7237;49.500;11.400;2022-08-14T12:30:55;6.53;;;4.53;;
14306;SDS011;7237;49.500;11.400;2022-08-14T12:33:23;4.47;;;4.18;;
14306;SDS011;7237;49.500;11.400;2022-08-14T12:35:51;5.03;;;4.50;;
14306;SDS011;7237;49.500;11.400;2022-08-14T12:38:29;6.32;;;4.53;;
14306;SDS011;7237;49.500;11.400;2022-08-14T12:40:56;5.72;;;4.45;;
14306;SDS011;7237;49.500;11.400;2022-08-14T12:43:23;5.10;;;4.22;;
14306;SDS011;7237;49.500;11.400;2022-08-14T12:45:51;5.90;;;4.60;;
14306;SDS011;7237;49.500;11.400;2022-08-14T12:48:19;4.80;;;4.40;;
14306;SDS011;7237;49.500;11.400;2022-08-14T12:50:47;5.35;;;4.20;;
14306;SDS011;7237;49.500;11.400;2022-08-14T12:53:16;5.68;;;4.18;;
14306;SDS011;7237;49.500;11.400;2022-08-14T12:55:45;4.90;;;4.40;;
14306;SDS011;7237;49.500;11.400;2022-08-14T12:58:12;4.40;;;4.10;;
14306;SDS011;7237;49.500;11.400;2022-08-14T13:00:45;4.72;;;4.20;;
14306;SDS011;7237;49.500;11.400;2022-08-14T13:03:21;4.53;;;4.13;;
14306;SDS011;7237;49.500;11.400;2022-08-14T13:05:48;4.30;;;4.00;;
14306;SDS011;7237;49.500;11.400;2022-08-14T13:08:16;4.28;;;3.97;;
14306;SDS011;7237;49.500;11.400;2022-08-14T13:10:44;4.10;;;3.80;;
14306;SDS011;7237;49.500;11.400;2022-08-14T13:13:13;4.70;;;3.78;;
14306;SDS011;7237;49.500;11.400;2022-08-14T13:15:41;7.15;;;3.72;;
14306;SDS011;7237;49.500;11.400;2022-08-14T13:18:10;4.40;;;4.00;;
14306;SDS011;7237;49.500;11.400;2022-08-14T13:20:37;4.28;;;3.88;;
14306;SDS011;7237;49.500;11.400;2022-08-14T13:23:06;3.97;;;3.67;;
14306;SDS011;7237;49.500;11.400;2022-08-14T13:25:33;4.25;;;3.90;;
14306;SDS011;7237;49.500;11.400;2022-08-14T13:28:03;6.07;;;4.03;;
14306;SDS011;7237;49.500;11.400;2022-08-14T13:30:30;9.20;;;4.05;;
14306;SDS011;7237;49.500;11.400;2022-08-14T13:32:57;4.20;;;3.80;;
14306;SDS011;7237;49.500;11.400;2022-08-14T13:35:25;4.38;;;3.97;;
14306;SDS011;7237;49.500;11.400;2022-08-14T13:37:52;5.43;;;3.97;;
14306;SDS011;7237;49.500;11.400;2022-08-14T13:40:20;4.20;;;3.80;;
14306;SDS011;7237;49.500;11.400;2022-08-14T13:42:48;5.07;;;4.60;;
14306;SDS011;7237;49.500;11.400;2022-08-14T13:45:18;4.30;;;4.00;;
14306;SDS011;7237;49.500;11.400;2022-08-14T13:47:47;5.40;;;4.47;;
14306;SDS011;7237;49.500;11.400;2022-08-14T13:50:16;4.65;;;4.25;;
14306;SDS011;7237;49.500;11.400;2022-08-14T13:52:46;4.93;;;4.43;;
14306;SDS011;7237;49.500;11.400;2022-08-14T13:55:18;5.60;;;4.28;;
14306;SDS011;7237;49.500;11.400;2022-08-14T13:57:45;4.60;;;4.20;;
14306;SDS011;7237;49.500;11.400;2022-08-14T14:00:13;4.47;;;4.07;;
14306;SDS011;7237;49.500;11.400;2022-08-14T14:02:42;4.85;;;4.40;;
14306;SDS011;7237;49.500;11.400;2022-08-14T14:05:12;4.38;;;3.97;;
14306;SDS011;7237;49.500;11.400;2022-08-14T14:07:40;4.82;;;4.40;;
14306;SDS011;7237;49.500;11.400;2022-08-14T14:10:10;4.20;;;3.80;;
14306;SDS011;7237;49.500;11.400;2022-08-14T14:12:37;4.90;;;4.00;;
14306;SDS011;7237;49.500;11.400;2022-08-14T14:15:05;4.10;;;3.80;;
14306;SDS011;7237;49.500;11.400;2022-08-14T14:17:33;4.15;;;3.85;;
14306;SDS011;7237;49.500;11.400;2022-08-14T14:20:03;5.15;;;4.65;;
14306;SDS011;7237;49.500;11.400;2022-08-14T14:22:30;4.75;;;4.35;;
14306;SDS011;7237;49.500;11.400;2022-08-14T14:24:57;4.45;;;4.10;;
14306;SDS011;7237;49.500;11.400;2022-08-14T14:27:25;5.45;;;4.30;;
14306;SDS011;7237;49.500;11.400;2022-08-14T14:29:54;4.28;;;3.88;;
14306;SDS011;7237;49.500;11.400;2022-08-14T14:32:23;5.50;;;4.05;;
14306;SDS011;7237;49.500;11.400;2022-08-14T14:34:52;4.90;;;4.00;;
14306;SDS011;7237;49.500;11.400;2022-08-14T14:37:21;4.40;;;3.70;;
14306;SDS011;7237;49.500;11.400;2022-08-14T14:39:49;5.05;;;4.38;;
14306;SDS011;7237;49.500;11.400;2022-08-14T14:42:17;7.03;;;4.38;;
14306;SDS011;7237;49.500;11.400;2022-08-14T14:44:44;4.72;;;3.70;;
14306;SDS011;7237;49.500;11.400;2022-08-14T14:47:17;4.05;;;3.70;;
14306;SDS011;7237;49.500;11.400;2022-08-14T14:49:46;4.72;;;4.32;;